sensor_id;sensor_type;location;lat;lon;timestamp;pressure;altitude;pressure_sealevel;temperature;humidity
75815;BME280;70031;45.570;14.228;2023-06-14T00:00:22;96537.03;;;9.83;100.00
75815;BME280;70031;45.570;14.228;2023-06-14T00:02:22;96534.94;;;9.80;100.00
75815;BME280;70031;45.570;14.228;2023-06-14T00:04:22;96535.94;;;9.66;100.00
75815;BME280;70031;45.570;14.228;2023-06-14T00:06:25;96530.13;;;9.58;100.00
75815;BME280;70031;45.570;14.228;2023-06-14T00:08:25;96530.69;;;9.55;100.00
75815;BME280;70031;45.570;14.228;2023-06-14T00:10:26;96525.69;;;9.49;100.00
75815;BME280;70031;45.570;14.228;2023-06-14T00:12:31;96519.81;;;9.47;100.00
75815;BME280;70031;45.570;14.228;2023-06-14T00:14:31;96522.69;;;9.50;100.00
75815;BME280;70031;45.570;14.228;2023-06-14T00:16:32;96519.75;;;9.52;100.00
75815;BME280;70031;45.570;14.228;2023-06-14T00:18:35;96518.38;;;9.54;100.00
75815;BME280;70031;45.570;14.228;2023-06-14T00:20:35;96511.09;;;9.55;100.00
75815;BME280;70031;45.570;14.228;2023-06-14T00:22:36;96520.66;;;9.42;100.00
75815;BME280;70031;45.570;14.228;2023-06-14T00:24:37;96519.50;;;9.29;100.00
75815;BME280;70031;45.570;14.228;2023-06-14T00:26:37;96510.53;;;9.15;100.00
75815;BME280;70031;45.570;14.228;2023-06-14T00:28:38;96511.22;;;9.02;100.00
75815;BME280;70031;45.570;14.228;2023-06-14T00:30:39;96511.72;;;9.04;100.00
75815;BME280;70031;45.570;14.228;2023-06-14T00:32:39;96509.78;;;9.10;100.00
75815;BME280;70031;45.570;14.228;2023-06-14T00:34:40;96512.56;;;9.23;100.00
75815;BME280;70031;45.570;14.228;2023-06-14T00:36:40;96503.88;;;9.32;100.00
75815;BME280;70031;45.570;14.228;2023-06-14T00:38:40;96509.13;;;9.42;100.00
75815;BME280;70031;45.570;14.228;2023-06-14T00:40:41;96499.97;;;9.43;100.00
75815;BME280;70031;45.570;14.228;2023-06-14T00:42:41;96508.56;;;9.45;100.00
75815;BME280;70031;45.570;14.228;2023-06-14T00:44:42;96505.72;;;9.36;100.00
75815;BME280;70031;45.570;14.228;2023-06-14T00:46:43;96507.03;;;9.39;100.00
75815;BME280;70031;45.570;14.228;2023-06-14T00:48:44;96505.47;;;9.33;100.00
75815;BME280;70031;45.570;14.228;2023-06-14T00:50:45;96501.97;;;9.13;100.00
75815;BME280;70031;45.570;14.228;2023-06-14T00:52:49;96501.78;;;9.05;100.00
75815;BME280;70031;45.570;14.228;2023-06-14T00:54:50;96491.91;;;9.00;100.00
75815;BME280;70031;45.570;14.228;2023-06-14T00:56:51;96499.16;;;8.99;100.00
75815;BME280;70031;45.570;14.228;2023-06-14T00:58:51;96504.44;;;8.86;100.00
75815;BME280;70031;45.570;14.228;2023-06-14T01:00:52;96503.78;;;8.70;100.00
75815;BME280;70031;45.570;14.228;2023-06-14T01:02:52;96503.44;;;8.77;100.00
75815;BME280;70031;45.570;14.228;2023-06-14T01:04:53;96489.69;;;8.83;100.00
75815;BME280;70031;45.570;14.228;2023-06-14T01:09:15;96488.25;;;8.91;100.00
75815;BME280;70031;45.570;14.228;2023-06-14T01:11:22;96491.75;;;8.91;100.00
75815;BME280;70031;45.570;14.228;2023-06-14T01:13:34;96489.63;;;8.88;100.00
75815;BME280;70031;45.570;14.228;2023-06-14T01:15:37;96489.97;;;8.82;100.00
75815;BME280;70031;45.570;14.228;2023-06-14T01:17:37;96492.69;;;8.77;100.00
75815;BME280;70031;45.570;14.228;2023-06-14T01:19:45;96496.06;;;8.63;100.00
75815;BME280;70031;45.570;14.228;2023-06-14T01:21:45;96489.25;;;8.47;100.00
75815;BME280;70031;45.570;14.228;2023-06-14T01:23:46;96484.22;;;8.40;100.00
75815;BME280;70031;45.570;14.228;2023-06-14T01:25:52;96490.38;;;8.41;100.00
75815;BME280;70031;45.570;14.228;2023-06-14T01:27:57;96491.94;;;8.47;100.00
75815;BME280;70031;45.570;14.228;2023-06-14T01:29:58;96491.31;;;8.55;100.00
75815;BME280;70031;45.570;14.228;2023-06-14T01:32:03;96489.19;;;8.52;100.00
75815;BME280;70031;45.570;14.228;2023-06-14T01:34:03;96486.84;;;8.46;100.00
75815;BME280;70031;45.570;14.228;2023-06-14T01:36:05;96487.19;;;8.39;100.00
75815;BME280;70031;45.570;14.228;2023-06-14T01:38:07;96479.84;;;8.50;100.00
75815;BME280;70031;45.570;14.228;2023-06-14T01:40:09;96479.84;;;8.50;100.00
75815;BME280;70031;45.570;14.228;2023-06-14T01:42:11;96481.56;;;8.35;100.00
75815;BME280;70031;45.570;14.228;2023-06-14T01:44:13;96484.28;;;8.30;100.00
75815;BME280;70031;45.570;14.228;2023-06-14T01:46:15;96481.31;;;8.32;100.00
75815;BME280;70031;45.570;14.228;2023-06-14T01:48:16;96479.72;;;8.36;100.00
75815;BME280;70031;45.570;14.228;2023-06-14T01:50:19;96483.13;;;8.41;100.00
75815;BME280;70031;45.570;14.228;2023-06-14T01:52:20;96484.47;;;8.44;100.00
75815;BME280;70031;45.570;14.228;2023-06-14T01:54:22;96485.53;;;8.43;100.00
75815;BME280;70031;45.570;14.228;2023-06-14T01:56:22;96476.53;;;8.29;100.00
75815;BME280;70031;45.570;14.228;2023-06-14T01:58:23;96474.16;;;8.22;100.00
75815;BME280;70031;45.570;14.228;2023-06-14T02:00:24;96477.84;;;8.31;100.00
75815;BME280;70031;45.570;14.228;2023-06-14T02:02:24;96479.13;;;8.39;100.00
75815;BME280;70031;45.570;14.228;2023-06-14T02:04:24;96473.44;;;8.46;100.00
75815;BME280;70031;45.570;14.228;2023-06-14T02:06:26;96473.78;;;8.39;100.00
75815;BME280;70031;45.570;14.228;2023-06-14T02:08:27;96478.53;;;8.47;100.00
75815;BME280;70031;45.570;14.228;2023-06-14T02:10:28;96472.66;;;8.45;100.00
75815;BME280;70031;45.570;14.228;2023-06-14T02:12:28;96472.97;;;8.38;100.00
75815;BME280;70031;45.570;14.228;2023-06-14T02:14:28;96481.03;;;8.38;100.00
75815;BME280;70031;45.570;14.228;2023-06-14T02:16:29;96486.72;;;8.27;100.00
75815;BME280;70031;45.570;14.228;2023-06-14T02:18:29;96486.81;;;8.16;100.00
75815;BME280;70031;45.570;14.228;2023-06-14T02:20:30;96485.91;;;7.97;100.00
75815;BME280;70031;45.570;14.228;2023-06-14T02:22:30;96487.81;;;7.92;100.00
75815;BME280;70031;45.570;14.228;2023-06-14T02:24:31;96483.97;;;8.03;100.00
75815;BME280;70031;45.570;14.228;2023-06-14T02:26:31;96479.63;;;8.12;100.00
75815;BME280;70031;45.570;14.228;2023-06-14T02:28:32;96490.84;;;8.14;100.00
75815;BME280;70031;45.570;14.228;2023-06-14T02:30:32;96489.56;;;8.06;100.00
75815;BME280;70031;45.570;14.228;2023-06-14T02:32:33;96497.63;;;8.06;100.00
75815;BME280;70031;45.570;14.228;2023-06-14T02:34:35;96486.38;;;8.04;100.00
75815;BME280;70031;45.570;14.228;2023-06-14T02:36:35;96502.16;;;8.11;100.00
75815;BME280;70031;45.570;14.228;2023-06-14T02:38:41;96502.94;;;8.11;100.00
75815;BME280;70031;45.570;14.228;2023-06-14T02:40:42;96499.41;;;8.16;100.00
75815;BME280;70031;45.570;14.228;2023-06-14T02:42:42;96495.63;;;8.17;100.00
75815;BME280;70031;45.570;14.228;2023-06-14T02:44:42;96490.00;;;8.18;100.00
75815;BME280;70031;45.570;14.228;2023-06-14T02:46:43;96488.41;;;8.17;100.00
75815;BME280;70031;45.570;14.228;2023-06-14T02:48:44;96489.53;;;8.11;100.00
75815;BME280;70031;45.570;14.228;2023-06-14T02:50:45;96487.97;;;8.05;100.00
75815;BME280;70031;45.570;14.228;2023-06-14T02:52:45;96500.28;;;8.06;100.00
75815;BME280;70031;45.570;14.228;2023-06-14T02:54:46;96495.44;;;8.08;100.00
75815;BME280;70031;45.570;14.228;2023-06-14T02:56:47;96496.22;;;8.14;100.00
75815;BME280;70031;45.570;14.228;2023-06-14T02:58:47;96498.50;;;8.26;100.00
75815;BME280;70031;45.570;14.228;2023-06-14T03:00:48;96499.78;;;8.33;100.00
75815;BME280;70031;45.570;14.228;2023-06-14T03:02:49;96496.84;;;8.35;100.00
75815;BME280;70031;45.570;14.228;2023-06-14T03:04:51;96503.22;;;8.44;100.00
75815;BME280;70031;45.570;14.228;2023-06-14T03:06:52;96491.66;;;8.49;100.00
75815;BME280;70031;45.570;14.228;2023-06-14T03:08:53;96503.41;;;8.53;100.00
75815;BME280;70031;45.570;14.228;2023-06-14T03:10:55;96493.38;;;8.63;100.00
75815;BME280;70031;45.570;14.228;2023-06-14T03:12:56;96508.91;;;8.66;100.00
75815;BME280;70031;45.570;14.228;2023-06-14T03:14:56;96508.06;;;8.71;100.00
75815;BME280;70031;45.570;14.228;2023-06-14T03:16:57;96505.59;;;8.75;100.00
75815;BME280;70031;45.570;14.228;2023-06-14T03:18:57;96501.03;;;8.75;100.00
75815;BME280;70031;45.570;14.228;2023-06-14T03:20:57;96503.38;;;8.82;100.00
75815;BME280;70031;45.570;14.228;2023-06-14T03:23:02;96496.47;;;8.76;100.00
75815;BME280;70031;45.570;14.228;2023-06-14T03:25:03;96498.41;;;8.70;100.00
75815;BME280;70031;45.570;14.228;2023-06-14T03:27:04;96504.50;;;8.76;100.00
75815;BME280;70031;45.570;14.228;2023-06-14T03:29:05;96507.44;;;8.79;100.00
75815;BME280;70031;45.570;14.228;2023-06-14T03:31:05;96505.28;;;8.81;100.00
75815;BME280;70031;45.570;14.228;2023-06-14T03:33:06;96509.84;;;8.81;100.00
75815;BME280;70031;45.570;14.228;2023-06-14T03:35:07;96500.69;;;8.82;100.00
75815;BME280;70031;45.570;14.228;2023-06-14T03:37:08;96511.38;;;8.87;100.00
75815;BME280;70031;45.570;14.228;2023-06-14T03:39:08;96506.81;;;8.87;100.00
75815;BME280;70031;45.570;14.228;2023-06-14T03:41:08;96499.66;;;9.01;100.00
75815;BME280;70031;45.570;14.228;2023-06-14T03:43:09;96500.03;;;8.95;100.00
75815;BME280;70031;45.570;14.228;2023-06-14T03:45:09;96507.91;;;8.86;100.00
75815;BME280;70031;45.570;14.228;2023-06-14T03:47:10;96505.78;;;8.83;100.00
75815;BME280;70031;45.570;14.228;2023-06-14T03:49:11;96515.88;;;8.91;100.00
75815;BME280;70031;45.570;14.228;2023-06-14T03:51:11;96513.72;;;8.93;100.00
75815;BME280;70031;45.570;14.228;2023-06-14T03:53:12;96505.91;;;8.97;100.00
75815;BME280;70031;45.570;14.228;2023-06-14T03:55:12;96507.91;;;9.10;100.00
75815;BME280;70031;45.570;14.228;2023-06-14T03:57:16;96517.31;;;9.08;100.00
75815;BME280;70031;45.570;14.228;2023-06-14T03:59:16;96514.88;;;9.11;100.00
75815;BME280;70031;45.570;14.228;2023-06-14T04:01:16;96514.63;;;9.08;100.00
75815;BME280;70031;45.570;14.228;2023-06-14T04:03:17;96508.41;;;9.12;100.00
75815;BME280;70031;45.570;14.228;2023-06-14T04:05:19;96514.41;;;9.28;100.00
75815;BME280;70031;45.570;14.228;2023-06-14T04:07:26;96522.09;;;9.35;100.00
75815;BME280;70031;45.570;14.228;2023-06-14T04:09:29;96519.34;;;9.40;100.00
75815;BME280;70031;45.570;14.228;2023-06-14T04:11:30;96513.69;;;9.41;100.00
75815;BME280;70031;45.570;14.228;2023-06-14T04:13:31;96524.09;;;9.48;100.00
75815;BME280;70031;45.570;14.228;2023-06-14T04:15:32;96520.94;;;9.41;100.00
75815;BME280;70031;45.570;14.228;2023-06-14T04:17:32;96521.09;;;9.49;100.00
75815;BME280;70031;45.570;14.228;2023-06-14T04:19:33;96530.84;;;9.64;100.00
75815;BME280;70031;45.570;14.228;2023-06-14T04:21:33;96519.91;;;9.79;100.00
75815;BME280;70031;45.570;14.228;2023-06-14T04:23:35;96528.56;;;9.95;100.00
75815;BME280;70031;45.570;14.228;2023-06-14T04:25:35;96519.53;;;10.05;100.00
75815;BME280;70031;45.570;14.228;2023-06-14T04:27:37;96529.91;;;10.30;100.00
75815;BME280;70031;45.570;14.228;2023-06-14T04:29:37;96533.09;;;10.32;100.00
75815;BME280;70031;45.570;14.228;2023-06-14T04:31:39;96521.19;;;10.38;100.00
75815;BME280;70031;45.570;14.228;2023-06-14T04:33:39;96529.31;;;10.33;100.00
75815;BME280;70031;45.570;14.228;2023-06-14T04:35:43;96522.47;;;10.41;100.00
75815;BME280;70031;45.570;14.228;2023-06-14T04:37:47;96524.72;;;10.53;100.00
75815;BME280;70031;45.570;14.228;2023-06-14T04:39:48;96532.13;;;10.61;100.00
75815;BME280;70031;45.570;14.228;2023-06-14T04:41:49;96528.56;;;10.79;100.00
75815;BME280;70031;45.570;14.228;2023-06-14T04:43:52;96518.53;;;10.52;100.00
75815;BME280;70031;45.570;14.228;2023-06-14T04:45:53;96540.94;;;10.48;100.00
75815;BME280;70031;45.570;14.228;2023-06-14T04:47:58;96536.97;;;10.59;100.00
75815;BME280;70031;45.570;14.228;2023-06-14T04:49:59;96540.34;;;10.51;100.00
75815;BME280;70031;45.570;14.228;2023-06-14T04:52:00;96534.69;;;10.66;100.00
75815;BME280;70031;45.570;14.228;2023-06-14T04:54:01;96536.47;;;10.57;100.00
75815;BME280;70031;45.570;14.228;2023-06-14T04:56:03;96545.09;;;10.40;100.00
75815;BME280;70031;45.570;14.228;2023-06-14T04:58:04;96530.78;;;10.45;100.00
75815;BME280;70031;45.570;14.228;2023-06-14T05:00:05;96537.91;;;10.35;100.00
75815;BME280;70031;45.570;14.228;2023-06-14T05:02:06;96530.84;;;10.39;100.00
75815;BME280;70031;45.570;14.228;2023-06-14T05:04:07;96536.22;;;10.39;100.00
75815;BME280;70031;45.570;14.228;2023-06-14T05:06:07;96537.50;;;10.42;100.00
75815;BME280;70031;45.570;14.228;2023-06-14T05:08:07;96528.91;;;10.59;100.00
75815;BME280;70031;45.570;14.228;2023-06-14T05:10:09;96527.03;;;10.73;100.00
75815;BME280;70031;45.570;14.228;2023-06-14T05:12:10;96531.06;;;10.89;100.00
75815;BME280;70031;45.570;14.228;2023-06-14T05:14:11;96538.25;;;10.94;100.00
75815;BME280;70031;45.570;14.228;2023-06-14T05:16:12;96535.75;;;10.97;100.00
75815;BME280;70031;45.570;14.228;2023-06-14T05:18:12;96543.53;;;10.99;100.00
75815;BME280;70031;45.570;14.228;2023-06-14T05:20:13;96542.66;;;11.04;100.00
75815;BME280;70031;45.570;14.228;2023-06-14T05:22:13;96549.22;;;11.25;100.00
75815;BME280;70031;45.570;14.228;2023-06-14T05:24:14;96548.06;;;11.17;100.00
75815;BME280;70031;45.570;14.228;2023-06-14T05:26:15;96544.75;;;11.34;100.00
75815;BME280;70031;45.570;14.228;2023-06-14T05:28:15;96533.47;;;11.60;100.00
75815;BME280;70031;45.570;14.228;2023-06-14T05:30:16;96544.91;;;11.79;100.00
75815;BME280;70031;45.570;14.228;2023-06-14T05:32:17;96549.13;;;11.85;100.00
75815;BME280;70031;45.570;14.228;2023-06-14T05:34:17;96546.69;;;11.97;100.00
75815;BME280;70031;45.570;14.228;2023-06-14T05:36:17;96549.53;;;12.15;100.00
75815;BME280;70031;45.570;14.228;2023-06-14T05:38:18;96540.84;;;12.18;100.00
75815;BME280;70031;45.570;14.228;2023-06-14T05:40:18;96540.34;;;12.38;100.00
75815;BME280;70031;45.570;14.228;2023-06-14T05:42:19;96546.78;;;12.73;100.00
75815;BME280;70031;45.570;14.228;2023-06-14T05:44:19;96542.41;;;13.17;100.00
75815;BME280;70031;45.570;14.228;2023-06-14T05:46:20;96539.63;;;14.22;95.67
75815;BME280;70031;45.570;14.228;2023-06-14T05:48:22;96544.81;;;16.23;83.99
75815;BME280;70031;45.570;14.228;2023-06-14T05:50:22;96545.66;;;17.60;76.02
75815;BME280;70031;45.570;14.228;2023-06-14T05:52:23;96539.31;;;17.31;75.02
75815;BME280;70031;45.570;14.228;2023-06-14T05:54:23;96550.00;;;16.16;83.27
75815;BME280;70031;45.570;14.228;2023-06-14T05:56:24;96547.34;;;16.62;78.40
75815;BME280;70031;45.570;14.228;2023-06-14T05:58:24;96545.75;;;16.48;78.60
75815;BME280;70031;45.570;14.228;2023-06-14T06:00:24;96556.53;;;17.23;79.51
75815;BME280;70031;45.570;14.228;2023-06-14T06:02:25;96555.31;;;17.82;75.96
75815;BME280;70031;45.570;14.228;2023-06-14T06:04:25;96558.50;;;17.72;72.75
75815;BME280;70031;45.570;14.228;2023-06-14T06:06:26;96558.44;;;18.61;68.29
75815;BME280;70031;45.570;14.228;2023-06-14T06:08:27;96565.22;;;18.39;72.45
75815;BME280;70031;45.570;14.228;2023-06-14T06:10:27;96568.66;;;20.18;66.81
75815;BME280;70031;45.570;14.228;2023-06-14T06:12:27;96559.53;;;20.84;61.59
75815;BME280;70031;45.570;14.228;2023-06-14T06:14:28;96554.78;;;20.81;62.77
75815;BME280;70031;45.570;14.228;2023-06-14T06:16:28;96562.72;;;20.86;61.13
75815;BME280;70031;45.570;14.228;2023-06-14T06:18:28;96553.72;;;21.74;58.38
75815;BME280;70031;45.570;14.228;2023-06-14T06:20:29;96555.03;;;23.00;54.57
75815;BME280;70031;45.570;14.228;2023-06-14T06:22:31;96555.59;;;23.53;53.13
75815;BME280;70031;45.570;14.228;2023-06-14T06:24:32;96554.94;;;23.26;54.89
75815;BME280;70031;45.570;14.228;2023-06-14T06:26:32;96558.72;;;23.11;59.32
75815;BME280;70031;45.570;14.228;2023-06-14T06:28:33;96560.22;;;23.90;50.35
75815;BME280;70031;45.570;14.228;2023-06-14T06:30:33;96562.75;;;24.97;47.23
75815;BME280;70031;45.570;14.228;2023-06-14T06:32:33;96555.47;;;25.79;45.64
75815;BME280;70031;45.570;14.228;2023-06-14T06:34:34;96547.97;;;26.04;44.75
75815;BME280;70031;45.570;14.228;2023-06-14T06:36:36;96554.81;;;24.70;48.11
75815;BME280;70031;45.570;14.228;2023-06-14T06:38:37;96554.81;;;22.19;61.05
75815;BME280;70031;45.570;14.228;2023-06-14T06:40:37;96563.03;;;22.49;58.41
75815;BME280;70031;45.570;14.228;2023-06-14T06:42:40;96552.84;;;23.13;54.34
75815;BME280;70031;45.570;14.228;2023-06-14T06:44:41;96544.59;;;23.13;54.35
75815;BME280;70031;45.570;14.228;2023-06-14T06:46:41;96554.34;;;24.57;51.68
75815;BME280;70031;45.570;14.228;2023-06-14T06:48:42;96551.09;;;21.81;60.65
75815;BME280;70031;45.570;14.228;2023-06-14T06:50:43;96570.28;;;20.38;62.65
75815;BME280;70031;45.570;14.228;2023-06-14T06:52:43;96564.09;;;19.71;68.60
75815;BME280;70031;45.570;14.228;2023-06-14T06:54:45;96561.94;;;20.86;58.50
75815;BME280;70031;45.570;14.228;2023-06-14T06:56:45;96561.22;;;19.99;61.86
75815;BME280;70031;45.570;14.228;2023-06-14T06:58:46;96562.56;;;20.60;66.37
75815;BME280;70031;45.570;14.228;2023-06-14T07:00:46;96553.53;;;21.86;61.94
75815;BME280;70031;45.570;14.228;2023-06-14T07:02:47;96561.19;;;22.86;57.13
75815;BME280;70031;45.570;14.228;2023-06-14T07:04:47;96559.34;;;22.97;56.79
75815;BME280;70031;45.570;14.228;2023-06-14T07:06:48;96553.22;;;22.18;59.42
75815;BME280;70031;45.570;14.228;2023-06-14T07:08:48;96556.22;;;21.59;59.89
75815;BME280;70031;45.570;14.228;2023-06-14T07:10:49;96550.75;;;20.75;62.90
75815;BME280;70031;45.570;14.228;2023-06-14T07:12:49;96546.41;;;18.90;70.63
75815;BME280;70031;45.570;14.228;2023-06-14T07:14:50;96556.09;;;19.03;69.86
75815;BME280;70031;45.570;14.228;2023-06-14T07:16:58;96562.94;;;19.41;65.77
75815;BME280;70031;45.570;14.228;2023-06-14T07:18:58;96557.19;;;19.77;65.07
75815;BME280;70031;45.570;14.228;2023-06-14T07:20:58;96553.22;;;19.90;63.92
75815;BME280;70031;45.570;14.228;2023-06-14T07:22:59;96557.47;;;20.78;65.79
75815;BME280;70031;45.570;14.228;2023-06-14T07:24:59;96555.25;;;20.29;59.26
75815;BME280;70031;45.570;14.228;2023-06-14T07:27:00;96548.38;;;20.73;60.10
75815;BME280;70031;45.570;14.228;2023-06-14T07:29:01;96556.00;;;20.10;58.54
75815;BME280;70031;45.570;14.228;2023-06-14T07:31:01;96549.91;;;20.52;57.56
75815;BME280;70031;45.570;14.228;2023-06-14T07:33:02;96548.03;;;21.37;53.78
75815;BME280;70031;45.570;14.228;2023-06-14T07:35:03;96539.16;;;21.24;59.60
75815;BME280;70031;45.570;14.228;2023-06-14T07:37:03;96540.81;;;21.74;52.47
75815;BME280;70031;45.570;14.228;2023-06-14T07:39:04;96547.28;;;21.40;53.64
75815;BME280;70031;45.570;14.228;2023-06-14T07:41:12;96541.91;;;22.19;57.73
75815;BME280;70031;45.570;14.228;2023-06-14T07:43:12;96543.81;;;21.00;54.45
75815;BME280;70031;45.570;14.228;2023-06-14T07:45:13;96535.75;;;22.03;60.06
75815;BME280;70031;45.570;14.228;2023-06-14T07:47:14;96535.31;;;22.87;54.30
75815;BME280;70031;45.570;14.228;2023-06-14T07:49:15;96530.81;;;23.98;48.54
75815;BME280;70031;45.570;14.228;2023-06-14T07:51:15;96533.91;;;23.89;48.26
75815;BME280;70031;45.570;14.228;2023-06-14T07:53:18;96529.53;;;23.37;50.39
75815;BME280;70031;45.570;14.228;2023-06-14T07:55:18;96540.00;;;24.23;46.77
75815;BME280;70031;45.570;14.228;2023-06-14T07:57:19;96532.34;;;24.50;44.64
75815;BME280;70031;45.570;14.228;2023-06-14T07:59:20;96526.09;;;23.06;51.76
75815;BME280;70031;45.570;14.228;2023-06-14T08:01:21;96525.16;;;21.75;51.46
75815;BME280;70031;45.570;14.228;2023-06-14T08:03:24;96515.81;;;22.62;52.70
75815;BME280;70031;45.570;14.228;2023-06-14T08:05:25;96514.72;;;22.70;53.78
75815;BME280;70031;45.570;14.228;2023-06-14T08:07:26;96514.13;;;22.21;52.56
75815;BME280;70031;45.570;14.228;2023-06-14T08:09:26;96524.38;;;22.91;49.70
75815;BME280;70031;45.570;14.228;2023-06-14T08:11:29;96518.50;;;23.30;53.91
75815;BME280;70031;45.570;14.228;2023-06-14T08:13:29;96519.22;;;24.29;50.52
75815;BME280;70031;45.570;14.228;2023-06-14T08:15:30;96510.25;;;24.40;46.43
75815;BME280;70031;45.570;14.228;2023-06-14T08:17:31;96519.81;;;23.98;49.20
75815;BME280;70031;45.570;14.228;2023-06-14T08:19:31;96517.84;;;23.95;50.56
75815;BME280;70031;45.570;14.228;2023-06-14T08:21:31;96513.28;;;25.21;45.38
75815;BME280;70031;45.570;14.228;2023-06-14T08:23:33;96512.63;;;23.79;46.32
75815;BME280;70031;45.570;14.228;2023-06-14T08:25:33;96511.69;;;23.16;51.01
75815;BME280;70031;45.570;14.228;2023-06-14T08:27:34;96514.47;;;23.61;52.64
75815;BME280;70031;45.570;14.228;2023-06-14T08:29:35;96517.00;;;23.84;49.24
75815;BME280;70031;45.570;14.228;2023-06-14T08:31:35;96513.69;;;25.31;44.05
75815;BME280;70031;45.570;14.228;2023-06-14T08:33:36;96510.81;;;24.77;44.82
75815;BME280;70031;45.570;14.228;2023-06-14T08:35:36;96514.09;;;25.61;47.58
75815;BME280;70031;45.570;14.228;2023-06-14T08:37:39;96516.09;;;25.79;43.48
75815;BME280;70031;45.570;14.228;2023-06-14T08:39:41;96517.09;;;24.81;48.32
75815;BME280;70031;45.570;14.228;2023-06-14T08:41:44;96518.22;;;24.59;45.15
75815;BME280;70031;45.570;14.228;2023-06-14T08:43:45;96508.44;;;24.76;46.65
75815;BME280;70031;45.570;14.228;2023-06-14T08:45:46;96511.91;;;23.89;49.50
75815;BME280;70031;45.570;14.228;2023-06-14T08:47:48;96523.56;;;23.68;47.60
75815;BME280;70031;45.570;14.228;2023-06-14T08:49:53;96513.28;;;25.11;48.21
75815;BME280;70031;45.570;14.228;2023-06-14T08:52:00;96512.13;;;25.62;40.66
75815;BME280;70031;45.570;14.228;2023-06-14T08:54:01;96512.91;;;25.69;49.74
75815;BME280;70031;45.570;14.228;2023-06-14T08:56:02;96512.31;;;24.60;47.55
75815;BME280;70031;45.570;14.228;2023-06-14T08:58:05;96525.31;;;23.98;44.29
75815;BME280;70031;45.570;14.228;2023-06-14T09:00:06;96524.31;;;25.39;48.59
75815;BME280;70031;45.570;14.228;2023-06-14T09:02:12;96524.84;;;24.44;45.40
75815;BME280;70031;45.570;14.228;2023-06-14T09:04:14;96529.91;;;23.76;46.03
75815;BME280;70031;45.570;14.228;2023-06-14T09:06:15;96529.75;;;24.13;53.47
75815;BME280;70031;45.570;14.228;2023-06-14T09:08:16;96525.06;;;25.04;47.78
75815;BME280;70031;45.570;14.228;2023-06-14T09:10:16;96526.69;;;25.37;44.31
75815;BME280;70031;45.570;14.228;2023-06-14T09:12:17;96523.56;;;25.92;47.14
75815;BME280;70031;45.570;14.228;2023-06-14T09:14:18;96527.53;;;24.33;43.09
75815;BME280;70031;45.570;14.228;2023-06-14T09:16:19;96524.09;;;23.88;46.55
75815;BME280;70031;45.570;14.228;2023-06-14T09:18:20;96529.28;;;24.00;43.45
75815;BME280;70031;45.570;14.228;2023-06-14T09:20:23;96522.81;;;23.31;43.74
75815;BME280;70031;45.570;14.228;2023-06-14T09:22:24;96526.72;;;23.30;43.49
75815;BME280;70031;45.570;14.228;2023-06-14T09:24:25;96527.19;;;24.45;43.29
75815;BME280;70031;45.570;14.228;2023-06-14T09:26:26;96531.13;;;23.86;47.76
75815;BME280;70031;45.570;14.228;2023-06-14T09:28:27;96526.44;;;23.86;46.63
75815;BME280;70031;45.570;14.228;2023-06-14T09:30:28;96530.03;;;23.97;50.42
75815;BME280;70031;45.570;14.228;2023-06-14T09:32:29;96540.91;;;23.79;48.11
75815;BME280;70031;45.570;14.228;2023-06-14T09:34:29;96534.97;;;23.74;49.17
75815;BME280;70031;45.570;14.228;2023-06-14T09:36:31;96528.59;;;24.21;49.65
75815;BME280;70031;45.570;14.228;2023-06-14T09:38:33;96541.84;;;24.67;45.60
75815;BME280;70031;45.570;14.228;2023-06-14T09:40:34;96539.13;;;24.05;51.29
75815;BME280;70031;45.570;14.228;2023-06-14T09:42:37;96528.25;;;22.86;47.78
75815;BME280;70031;45.570;14.228;2023-06-14T09:44:38;96537.22;;;23.20;50.77
75815;BME280;70031;45.570;14.228;2023-06-14T09:46:39;96538.63;;;23.04;49.80
75815;BME280;70031;45.570;14.228;2023-06-14T09:48:39;96536.34;;;22.76;47.84
75815;BME280;70031;45.570;14.228;2023-06-14T09:50:45;96539.16;;;22.83;50.35
75815;BME280;70031;45.570;14.228;2023-06-14T09:52:48;96544.69;;;23.20;50.55
75815;BME280;70031;45.570;14.228;2023-06-14T09:54:52;96540.97;;;23.02;46.03
75815;BME280;70031;45.570;14.228;2023-06-14T09:56:54;96543.41;;;22.77;46.13
75815;BME280;70031;45.570;14.228;2023-06-14T09:58:56;96541.69;;;22.95;47.24
75815;BME280;70031;45.570;14.228;2023-06-14T10:00:58;96539.25;;;23.27;54.90
75815;BME280;70031;45.570;14.228;2023-06-14T10:03:03;96534.06;;;23.59;44.49
75815;BME280;70031;45.570;14.228;2023-06-14T10:05:07;96530.28;;;24.33;49.16
75815;BME280;70031;45.570;14.228;2023-06-14T10:07:09;96532.38;;;23.95;46.44
75815;BME280;70031;45.570;14.228;2023-06-14T10:09:10;96533.56;;;23.50;44.77
75815;BME280;70031;45.570;14.228;2023-06-14T10:11:13;96536.56;;;23.75;47.42
75815;BME280;70031;45.570;14.228;2023-06-14T10:13:14;96532.38;;;23.47;45.18
75815;BME280;70031;45.570;14.228;2023-06-14T10:15:26;96540.13;;;23.82;46.47
75815;BME280;70031;45.570;14.228;2023-06-14T10:17:40;96540.44;;;23.30;43.69
75815;BME280;70031;45.570;14.228;2023-06-14T10:19:50;96537.72;;;23.33;45.16
75815;BME280;70031;45.570;14.228;2023-06-14T10:22:01;96537.44;;;23.01;43.66
75815;BME280;70031;45.570;14.228;2023-06-14T10:24:07;96535.97;;;23.11;46.97
75815;BME280;70031;45.570;14.228;2023-06-14T10:26:08;96534.88;;;23.60;43.29
75815;BME280;70031;45.570;14.228;2023-06-14T10:28:19;96529.41;;;23.63;43.63
75815;BME280;70031;45.570;14.228;2023-06-14T10:30:25;96534.00;;;24.07;49.75
75815;BME280;70031;45.570;14.228;2023-06-14T10:32:25;96525.25;;;23.87;41.08
75815;BME280;70031;45.570;14.228;2023-06-14T10:34:31;96525.63;;;24.48;43.38